CST,Max TemperatureF,Mean TemperatureF,Min TemperatureF,Max Dew PointF,MeanDew PointF,Min DewpointF,Max Humidity, Mean Humidity, Min Humidity, Max Sea Level PressureIn, Mean Sea Level PressureIn, Min Sea Level PressureIn, Max VisibilityMiles, Mean VisibilityMiles, Min VisibilityMiles, Max Wind SpeedMPH, Mean Wind SpeedMPH, Max Gust SpeedMPH,PrecipitationIn, CloudCover, Events, WindDirDegrees
2013-11-1,65,53,41,40,37,35,82,59,36,30.11,29.91,29.76,10,10,10,26,11,36,0.00,3,,314
2013-11-2,61,50,39,36,32,28,76,53,29,30.30,30.21,30.13,10,10,10,17,9,22,0.00,0,,322
2013-11-3,64,53,42,40,35,32,70,53,36,30.12,29.96,29.81,10,10,10,38,22,47,0.00,4,,166
2013-11-4,63,56,48,54,45,40,86,66,46,30.05,29.96,29.81,10,10,10,26,10,36,0.00,4,,160
2013-11-5,62,52,41,60,54,39,100,93,86,30.08,29.95,29.83,10,6,1,28,15,37,0.30,8,Rain,173
2013-11-6,49,42,35,36,34,32,93,74,54,30.36,30.26,30.09,10,10,10,30,11,38,0.00,5,,334
2013-11-7,62,46,30,38,34,28,96,65,34,30.46,30.39,30.29,10,10,10,9,3,13,0.00,0,,13
2013-11-8,67,54,40,36,35,30,85,56,26,30.28,30.05,29.88,10,10,10,39,19,51,0.00,1,,181
2013-11-9,65,52,39,43,39,35,85,64,42,30.28,30.14,29.99,10,10,10,13,6,17,0.00,0,,115
2013-11-10,64,53,42,49,43,35,89,68,46,30.38,30.29,30.22,10,10,10,18,9,22,0.00,4,,135
2013-11-11,58,44,30,52,44,19,100,85,70,30.65,30.29,30.16,10,8,5,26,12,37,T,8,Rain,277
2013-11-12,38,30,21,17,13,8,74,52,29,30.91,30.80,30.69,10,10,10,25,10,35,0.00,1,,355
2013-11-13,50,35,19,24,19,14,84,59,34,30.71,30.44,30.19,10,10,10,26,15,31,0.00,0,,185
2013-11-14,57,46,35,32,28,21,70,54,38,30.17,30.03,29.94,10,10,10,28,16,35,0.00,5,,182
2013-11-15,61,48,35,48,39,30,89,68,46,29.95,29.81,29.65,10,10,10,22,12,26,0.00,3,,167
2013-11-16,77,65,53,55,52,47,93,66,38,29.62,29.46,29.37,10,10,9,31,21,40,0.00,5,,187
2013-11-17,68,57,46,44,27,10,65,39,12,30.09,29.77,29.37,10,10,10,33,18,44,0.00,1,,298
2013-11-18,61,46,31,30,24,16,78,48,17,30.30,30.23,30.12,10,10,10,20,5,24,0.00,3,,157
2013-11-19,61,51,41,35,29,26,62,47,31,30.21,30.03,29.88,10,10,10,30,17,39,0.00,6,,157
2013-11-20,61,56,50,48,41,28,72,55,38,29.90,29.83,29.78,10,10,10,28,15,36,0.00,7,,169
2013-11-21,54,40,26,53,34,20,100,86,71,30.53,30.18,29.90,10,7,2,28,18,36,0.30,8,Rain,353
2013-11-22,30,27,24,19,16,12,81,64,47,30.69,30.63,30.55,10,10,5,28,16,39,T,8,Snow,360
2013-11-23,37,29,21,18,14,10,59,50,40,30.78,30.73,30.66,10,10,10,22,13,26,0.00,8,,22
2013-11-24,29,24,19,15,11,7,67,53,39,30.74,30.55,30.31,10,10,10,15,8,17,0.00,8,,146
2013-11-25,37,32,26,27,23,15,85,71,57,30.31,30.24,30.18,10,10,9,14,7,16,0.00,6,,234
2013-11-26,41,32,23,25,18,10,85,60,35,30.48,30.35,30.24,10,10,10,28,13,35,0.00,0,,350
2013-11-27,38,26,14,20,14,8,74,57,40,30.49,30.37,30.22,10,10,10,17,8,21,0.00,0,,210
2013-11-28,50,36,22,27,23,20,88,64,39,30.45,30.33,30.19,10,10,10,13,7,17,0.00,1,,63
2013-11-29,55,40,25,30,26,20,88,65,41,30.44,30.32,30.18,10,10,9,23,11,28,0.00,1,,144
2013-11-30,60,44,28,35,33,29,100,68,36,30.17,30.13,30.09,10,10,6,15,5,20,0.00,1,,205